Time;durP1;ratioP1;P1;durP2;ratioP2;P2;SDS_P1;SDS_P2;PMS_P1;PMS_P2;Temp;Humidity;BMP_temperature;BMP_pressure;BME280_temperature;BME280_humidity;BME280_pressure;Samples;Min_cycle;Max_cycle;Signal;HPM_P1;HPM_P2
2021/07/20 00:01:47;;;;;;;9.27;8.02;;;;;;;;;;3593277;39;20215;-81
2021/07/20 00:04:16;;;;;;;9.75;8.02;;;;;;;;;;3593004;39;20212;-80
2021/07/20 00:06:43;;;;;;;12.05;7.45;;;;;;;;;;3593259;39;20235;-81
2021/07/20 00:09:11;;;;;;;10.45;7.47;;;;;;;;;;3593176;39;20247;-81
2021/07/20 00:11:38;;;;;;;6.85;5.80;;;;;;;;;;3593330;39;20242;-80
2021/07/20 00:14:06;;;;;;;13.13;7.35;;;;;;;;;;3593201;39;20258;-81
2021/07/20 00:16:33;;;;;;;9.00;7.22;;;;;;;;;;3584646;39;20250;-81
2021/07/20 00:19:01;;;;;;;10.10;6.70;;;;;;;;;;3593076;39;20242;-81
2021/07/20 00:21:29;;;;;;;7.68;6.88;;;;;;;;;;3584571;39;20239;-85
2021/07/20 00:23:57;;;;;;;9.80;7.43;;;;;;;;;;3593182;39;20216;-81
2021/07/20 00:26:24;;;;;;;8.55;7.72;;;;;;;;;;3584539;39;20265;-80
2021/07/20 00:28:52;;;;;;;11.15;7.82;;;;;;;;;;3592936;39;20273;-80
2021/07/20 00:31:19;;;;;;;13.05;7.63;;;;;;;;;;3575208;40;20212;-81
2021/07/20 00:33:46;;;;;;;13.15;7.97;;;;;;;;;;3583108;40;20240;-83
2021/07/20 00:36:16;;;;;;;7.53;6.72;;;;;;;;;;3574690;40;20286;-80
2021/07/20 00:38:45;;;;;;;8.48;7.60;;;;;;;;;;3582960;40;20251;-84
2021/07/20 00:41:12;;;;;;;8.52;7.15;;;;;;;;;;3575631;40;20703;-80
2021/07/20 00:43:39;;;;;;;8.07;7.28;;;;;;;;;;3583022;40;20235;-80
2021/07/20 00:46:07;;;;;;;10.70;7.32;;;;;;;;;;3574435;40;20212;-80
2021/07/20 00:48:34;;;;;;;8.25;6.93;;;;;;;;;;3574275;40;20239;-79
2021/07/20 00:51:13;;;;;;;9.07;7.18;;;;;;;;;;3574379;40;20228;-80
2021/07/20 00:53:41;;;;;;;10.75;6.70;;;;;;;;;;3574415;40;20268;-79
2021/07/20 00:56:11;;;;;;;9.90;7.22;;;;;;;;;;3574413;40;20250;-80
2021/07/20 00:58:41;;;;;;;10.15;8.38;;;;;;;;;;3574343;40;20243;-78
2021/07/20 01:01:08;;;;;;;8.65;7.63;;;;;;;;;;3574441;40;20216;-80
2021/07/20 01:03:36;;;;;;;9.50;7.38;;;;;;;;;;3573667;40;20235;-80
2021/07/20 01:06:06;;;;;;;9.38;7.15;;;;;;;;;;3582866;40;20232;-80
2021/07/20 01:08:34;;;;;;;10.25;7.68;;;;;;;;;;3574098;40;20301;-80
2021/07/20 01:11:02;;;;;;;8.80;7.75;;;;;;;;;;3574385;40;20231;-79
2021/07/20 01:13:32;;;;;;;14.88;8.98;;;;;;;;;;3574248;40;20243;-80
2021/07/20 01:16:02;;;;;;;11.95;7.72;;;;;;;;;;3574325;40;20627;-80
2021/07/20 01:18:30;;;;;;;9.15;7.68;;;;;;;;;;3574283;40;20725;-80
2021/07/20 01:21:03;;;;;;;9.48;7.72;;;;;;;;;;3574291;40;20695;-80
2021/07/20 01:23:34;;;;;;;9.55;8.30;;;;;;;;;;3582756;40;20729;-79
2021/07/20 01:26:01;;;;;;;11.85;8.20;;;;;;;;;;3574243;40;20238;-81
2021/07/20 01:28:30;;;;;;;9.77;7.80;;;;;;;;;;3574048;40;20252;-80
2021/07/20 01:30:58;;;;;;;9.43;6.85;;;;;;;;;;3574163;40;20240;-84
2021/07/20 01:33:28;;;;;;;8.50;7.28;;;;;;;;;;3582732;40;20263;-81
2021/07/20 01:35:56;;;;;;;8.40;7.53;;;;;;;;;;3574145;40;20240;-80
2021/07/20 01:38:25;;;;;;;9.40;7.95;;;;;;;;;;3573971;40;20216;-79
2021/07/20 01:40:56;;;;;;;11.40;7.90;;;;;;;;;;3565940;40;20224;-79
2021/07/20 01:43:24;;;;;;;10.63;7.38;;;;;;;;;;3574049;40;20870;-79
2021/07/20 01:45:55;;;;;;;11.05;7.43;;;;;;;;;;3574188;40;20231;-80
2021/07/20 01:48:27;;;;;;;8.52;6.38;;;;;;;;;;3582465;40;20224;-81
2021/07/20 01:50:55;;;;;;;10.45;7.63;;;;;;;;;;3582592;40;20219;-80
2021/07/20 01:53:24;;;;;;;9.95;7.90;;;;;;;;;;3573951;40;20235;-84
2021/07/20 01:55:55;;;;;;;10.73;6.60;;;;;;;;;;3574192;40;20235;-80
2021/07/20 01:58:22;;;;;;;7.90;6.50;;;;;;;;;;3582473;40;20238;-79
2021/07/20 02:00:57;;;;;;;10.95;7.82;;;;;;;;;;3574030;40;20290;-80
2021/07/20 02:03:45;;;;;;;5.82;5.22;;;;;;;;;;3573948;40;20235;-80
2021/07/20 02:09:20;;;;;;;8.20;6.15;;;;;;;;;;3573848;40;20334;-79
2021/07/20 02:11:53;;;;;;;9.27;7.20;;;;;;;;;;3574040;40;20228;-80
2021/07/20 02:14:44;;;;;;;7.22;6.47;;;;;;;;;;3558906;40;20220;-79
2021/07/20 02:17:41;;;;;;;8.20;5.78;;;;;;;;;;3573815;40;20254;-81
2021/07/20 02:20:10;;;;;;;7.93;6.20;;;;;;;;;;3573890;40;20239;-80
2021/07/20 02:22:59;;;;;;;6.20;5.55;;;;;;;;;;3565552;40;20241;-78
2021/07/20 02:25:30;;;;;;;11.15;7.22;;;;;;;;;;3573941;40;20254;-79
2021/07/20 02:28:02;;;;;;;7.22;6.53;;;;;;;;;;3565456;40;20243;-80
2021/07/20 02:30:40;;;;;;;8.45;5.78;;;;;;;;;;3589004;39;20242;-82
2021/07/20 02:33:08;;;;;;;7.53;5.88;;;;;;;;;;3583391;39;20292;-80
2021/07/20 02:35:38;;;;;;;9.05;6.47;;;;;;;;;;3592329;39;20255;-79
2021/07/20 02:38:21;;;;;;;8.13;6.18;;;;;;;;;;3583558;39;20243;-81
2021/07/20 02:40:49;;;;;;;7.30;6.60;;;;;;;;;;3583634;39;20293;-81
2021/07/20 02:43:19;;;;;;;9.00;5.82;;;;;;;;;;3592283;39;20242;-80
2021/07/20 02:45:48;;;;;;;9.02;6.68;;;;;;;;;;3583661;39;20237;-78
2021/07/20 02:48:17;;;;;;;12.40;7.22;;;;;;;;;;3591967;39;20262;-85
2021/07/20 02:50:45;;;;;;;9.27;5.93;;;;;;;;;;3592241;39;20239;-79
2021/07/20 02:53:27;;;;;;;8.48;6.57;;;;;;;;;;3583516;39;20247;-79
2021/07/20 02:56:04;;;;;;;8.02;6.72;;;;;;;;;;3592250;39;20242;-81
2021/07/20 02:58:42;;;;;;;8.32;7.45;;;;;;;;;;3583471;39;20239;-84
2021/07/20 03:01:10;;;;;;;8.07;6.75;;;;;;;;;;3583643;39;20239;-80
2021/07/20 03:03:39;;;;;;;8.85;6.38;;;;;;;;;;3592205;39;20227;-79
2021/07/20 03:06:11;;;;;;;9.77;6.65;;;;;;;;;;3583527;39;20242;-79
2021/07/20 03:08:40;;;;;;;8.02;7.07;;;;;;;;;;3591953;39;20251;-79
2021/07/20 03:11:20;;;;;;;8.77;6.53;;;;;;;;;;3583500;39;20235;-80
2021/07/20 03:13:52;;;;;;;8.05;6.15;;;;;;;;;;3583469;39;20247;-80
2021/07/20 03:16:21;;;;;;;9.73;7.00;;;;;;;;;;3583394;39;20227;-80
2021/07/20 03:18:50;;;;;;;10.40;7.15;;;;;;;;;;3591933;39;20247;-81
2021/07/20 03:21:18;;;;;;;8.02;6.30;;;;;;;;;;3591971;39;20266;-79
2021/07/20 03:23:46;;;;;;;10.77;7.85;;;;;;;;;;3592110;39;20215;-79
2021/07/20 03:26:14;;;;;;;7.47;5.88;;;;;;;;;;3583709;39;20239;-82
2021/07/20 03:28:43;;;;;;;9.55;7.35;;;;;;;;;;3584762;39;20270;-80
2021/07/20 03:31:18;;;;;;;10.93;6.30;;;;;;;;;;3593608;39;20215;-79
2021/07/20 03:33:47;;;;;;;9.75;5.70;;;;;;;;;;3584845;39;20242;-80
2021/07/20 03:36:27;;;;;;;9.35;6.63;;;;;;;;;;3580339;40;20219;-81
2021/07/20 03:38:54;;;;;;;12.38;6.80;;;;;;;;;;3574926;40;20232;-80
2021/07/20 03:41:26;;;;;;;8.60;6.57;;;;;;;;;;3575074;40;20220;-81
2021/07/20 03:43:56;;;;;;;7.55;6.75;;;;;;;;;;3574956;40;20223;-81
2021/07/20 03:46:27;;;;;;;7.70;6.18;;;;;;;;;;3574889;40;20238;-83
2021/07/20 03:48:55;;;;;;;11.40;7.18;;;;;;;;;;3574838;40;20272;-83
2021/07/20 03:51:34;;;;;;;12.88;6.88;;;;;;;;;;3567320;39;20251;-81
2021/07/20 03:54:03;;;;;;;9.38;6.78;;;;;;;;;;3582051;39;20200;-81
2021/07/20 03:56:31;;;;;;;6.85;6.15;;;;;;;;;;3584796;39;20820;-81
2021/07/20 03:59:02;;;;;;;8.10;6.07;;;;;;;;;;3593339;39;20251;-82
2021/07/20 04:01:39;;;;;;;10.02;6.38;;;;;;;;;;3584781;39;20218;-81
2021/07/20 04:04:08;;;;;;;11.63;6.38;;;;;;;;;;3584831;39;20216;-82
2021/07/20 04:07:14;;;;;;;7.63;6.78;;;;;;;;;;3544742;40;20629;-81
2021/07/20 04:09:59;;;;;;;9.52;5.97;;;;;;;;;;3579585;40;20220;-80
2021/07/20 04:12:46;;;;;;;6.75;6.05;;;;;;;;;;3567918;40;20256;-80
2021/07/20 04:15:24;;;;;;;7.60;6.35;;;;;;;;;;3574828;40;20243;-83
2021/07/20 04:18:16;;;;;;;10.15;6.70;;;;;;;;;;3582203;40;20259;-82
2021/07/20 04:20:45;;;;;;;8.15;6.65;;;;;;;;;;3574719;40;20262;-81
2021/07/20 04:23:15;;;;;;;7.82;6.63;;;;;;;;;;3582814;40;20224;-80
2021/07/20 04:25:49;;;;;;;6.32;5.68;;;;;;;;;;3574843;40;20224;-81
2021/07/20 04:28:20;;;;;;;9.73;5.93;;;;;;;;;;3583174;40;20765;-81
2021/07/20 04:30:49;;;;;;;7.45;6.38;;;;;;;;;;3583387;40;20231;-81
2021/07/20 04:33:24;;;;;;;8.63;6.25;;;;;;;;;;3574698;40;20226;-84
2021/07/20 04:36:18;;;;;;;8.52;5.43;;;;;;;;;;3583011;40;20243;-80
2021/07/20 04:38:46;;;;;;;8.30;5.90;;;;;;;;;;3583069;40;20239;-80
2021/07/20 04:41:16;;;;;;;8.90;6.65;;;;;;;;;;3583175;40;20215;-82
2021/07/20 04:43:46;;;;;;;7.82;6.30;;;;;;;;;;3574834;40;20227;-79
2021/07/20 04:46:15;;;;;;;7.53;6.10;;;;;;;;;;3576314;39;20235;-80
2021/07/20 04:48:45;;;;;;;12.40;6.35;;;;;;;;;;3584398;39;20696;-81
2021/07/20 04:51:16;;;;;;;9.52;6.68;;;;;;;;;;3584683;39;20281;-80
2021/07/20 04:53:44;;;;;;;6.90;5.97;;;;;;;;;;3584431;39;20235;-80
2021/07/20 04:56:13;;;;;;;15.20;7.20;;;;;;;;;;3593202;39;20230;-85
2021/07/20 04:58:48;;;;;;;11.45;7.68;;;;;;;;;;3584438;39;20234;-80
2021/07/20 05:01:15;;;;;;;9.70;7.10;;;;;;;;;;3584469;39;20235;-80
2021/07/20 05:03:46;;;;;;;11.38;6.43;;;;;;;;;;3584417;39;20293;-79
2021/07/20 05:06:20;;;;;;;7.20;6.22;;;;;;;;;;3592632;39;20223;-80
2021/07/20 05:08:51;;;;;;;9.32;6.47;;;;;;;;;;3584333;39;20242;-81
2021/07/20 05:11:20;;;;;;;7.40;6.13;;;;;;;;;;3593087;39;20219;-81
2021/07/20 05:13:49;;;;;;;10.10;7.90;;;;;;;;;;3584327;39;20211;-83
2021/07/20 05:16:21;;;;;;;9.07;7.57;;;;;;;;;;3582524;39;20298;-80
2021/07/20 05:18:55;;;;;;;8.98;6.45;;;;;;;;;;3584168;39;20227;-80
2021/07/20 05:21:44;;;;;;;6.95;6.25;;;;;;;;;;3592513;39;20235;-83
2021/07/20 05:24:14;;;;;;;12.13;7.20;;;;;;;;;;3584222;39;20210;-81
2021/07/20 05:26:49;;;;;;;9.25;6.75;;;;;;;;;;3592729;39;20229;-80
2021/07/20 05:29:21;;;;;;;9.43;6.90;;;;;;;;;;3592458;39;20243;-81
2021/07/20 05:32:07;;;;;;;9.60;7.18;;;;;;;;;;3583959;39;20207;-80
2021/07/20 05:34:37;;;;;;;11.52;7.30;;;;;;;;;;3584165;39;20231;-79
2021/07/20 05:37:05;;;;;;;11.75;7.50;;;;;;;;;;3586273;39;20227;-80
2021/07/20 05:39:43;;;;;;;10.50;7.32;;;;;;;;;;3584054;39;20235;-80
2021/07/20 05:42:34;;;;;;;7.90;7.10;;;;;;;;;;3577703;40;20243;-83
2021/07/20 05:45:02;;;;;;;9.05;6.82;;;;;;;;;;3578008;39;20207;-79
2021/07/20 05:47:31;;;;;;;8.77;6.60;;;;;;;;;;3578299;39;20204;-79
2021/07/20 05:50:06;;;;;;;8.43;6.90;;;;;;;;;;3575439;40;20243;-82
2021/07/20 05:52:53;;;;;;;12.88;7.97;;;;;;;;;;3583821;39;20247;-81
2021/07/20 05:55:21;;;;;;;10.25;7.05;;;;;;;;;;3582768;40;20224;-84
2021/07/20 05:57:50;;;;;;;8.35;7.28;;;;;;;;;;3579385;39;20247;-82
2021/07/20 06:00:26;;;;;;;10.15;7.75;;;;;;;;;;3587083;39;20239;-82
2021/07/20 06:03:13;;;;;;;10.43;7.15;;;;;;;;;;3578150;39;20272;-80
2021/07/20 06:05:43;;;;;;;7.70;6.53;;;;;;;;;;3579238;39;20231;-80
2021/07/20 06:08:13;;;;;;;9.25;7.30;;;;;;;;;;3588454;39;20223;-79
2021/07/20 06:10:41;;;;;;;10.02;7.80;;;;;;;;;;3586695;39;20238;-79
2021/07/20 06:13:09;;;;;;;9.13;7.70;;;;;;;;;;3588493;39;20208;-81
2021/07/20 06:15:36;;;;;;;7.15;6.40;;;;;;;;;;3574799;39;20262;-84
2021/07/20 06:18:04;;;;;;;10.75;6.68;;;;;;;;;;3582236;40;20778;-81
2021/07/20 06:20:31;;;;;;;8.93;7.35;;;;;;;;;;3586839;39;20821;-80
2021/07/20 06:23:00;;;;;;;7.18;6.47;;;;;;;;;;3587204;39;20240;-82
2021/07/20 06:25:35;;;;;;;9.57;7.88;;;;;;;;;;3576396;40;20208;-81
2021/07/20 06:28:05;;;;;;;9.93;7.50;;;;;;;;;;3576287;40;20247;-81
2021/07/20 06:30:33;;;;;;;11.07;8.45;;;;;;;;;;3584018;39;20227;-81
2021/07/20 06:33:00;;;;;;;10.77;8.32;;;;;;;;;;3592350;39;20727;-80
2021/07/20 06:35:28;;;;;;;7.32;6.32;;;;;;;;;;3589401;39;21003;-80
2021/07/20 06:37:55;;;;;;;10.18;7.43;;;;;;;;;;3585445;39;20757;-81
2021/07/20 06:40:24;;;;;;;10.20;6.88;;;;;;;;;;3578557;40;20208;-83
2021/07/20 06:42:52;;;;;;;8.82;7.38;;;;;;;;;;3591401;39;20227;-80
2021/07/20 06:45:20;;;;;;;8.15;6.95;;;;;;;;;;3580771;40;20227;-80
2021/07/20 06:47:48;;;;;;;11.25;7.50;;;;;;;;;;3565179;40;20259;-82
2021/07/20 06:50:18;;;;;;;10.50;7.28;;;;;;;;;;3582019;40;20254;-80
2021/07/20 06:52:48;;;;;;;10.60;7.53;;;;;;;;;;3573472;40;20259;-78
2021/07/20 06:55:16;;;;;;;9.63;6.97;;;;;;;;;;3581229;40;20239;-77
2021/07/20 06:57:46;;;;;;;9.18;7.40;;;;;;;;;;3584724;40;20250;-76
2021/07/20 07:00:13;;;;;;;9.70;6.20;;;;;;;;;;3583405;40;20257;-77
2021/07/20 07:02:43;;;;;;;7.80;6.35;;;;;;;;;;3584900;40;20239;-78
2021/07/20 07:05:12;;;;;;;8.98;6.93;;;;;;;;;;3585606;40;20267;-77
2021/07/20 07:07:42;;;;;;;10.85;7.70;;;;;;;;;;3587455;40;20816;-77
2021/07/20 07:10:10;;;;;;;8.23;6.30;;;;;;;;;;3585812;40;20239;-76
2021/07/20 07:12:39;;;;;;;8.13;6.28;;;;;;;;;;3590023;40;20243;-77
2021/07/20 07:15:08;;;;;;;7.32;6.40;;;;;;;;;;3587595;40;20660;-77
2021/07/20 07:17:37;;;;;;;7.65;6.00;;;;;;;;;;3587141;40;20240;-77
2021/07/20 07:20:05;;;;;;;9.73;5.78;;;;;;;;;;3587311;39;20243;-77
2021/07/20 07:22:33;;;;;;;11.52;6.63;;;;;;;;;;3580954;40;20216;-78
2021/07/20 07:25:01;;;;;;;11.52;6.72;;;;;;;;;;3581416;40;20240;-77
2021/07/20 07:27:29;;;;;;;9.48;6.20;;;;;;;;;;3576466;40;20246;-78
2021/07/20 07:29:56;;;;;;;7.35;5.57;;;;;;;;;;3590945;40;20219;-76
2021/07/20 07:32:25;;;;;;;7.28;5.88;;;;;;;;;;3582322;40;20615;-77
2021/07/20 07:34:53;;;;;;;6.20;5.03;;;;;;;;;;3590629;40;20215;-76
2021/07/20 07:37:21;;;;;;;13.25;6.65;;;;;;;;;;3590793;40;20684;-78
2021/07/20 07:39:53;;;;;;;7.97;6.25;;;;;;;;;;3591551;39;20285;-78
2021/07/20 07:42:22;;;;;;;8.95;5.60;;;;;;;;;;3591286;40;20665;-78
2021/07/20 07:44:50;;;;;;;11.23;6.80;;;;;;;;;;3582649;40;20235;-77
2021/07/20 07:47:18;;;;;;;7.93;6.60;;;;;;;;;;3592253;39;20235;-82
2021/07/20 07:49:48;;;;;;;8.07;5.10;;;;;;;;;;3592462;39;20248;-78
2021/07/20 07:52:15;;;;;;;7.60;5.43;;;;;;;;;;3591880;40;20231;-78
2021/07/20 07:54:43;;;;;;;8.98;5.75;;;;;;;;;;3587383;39;20320;-79
2021/07/20 07:57:17;;;;;;;8.30;6.15;;;;;;;;;;3589253;39;20242;-78
2021/07/20 07:59:45;;;;;;;12.93;6.88;;;;;;;;;;3589081;40;20247;-77
2021/07/20 08:02:14;;;;;;;7.40;5.97;;;;;;;;;;3592225;39;20238;-83
2021/07/20 08:04:43;;;;;;;9.57;5.88;;;;;;;;;;3581450;40;20235;-76
2021/07/20 08:07:12;;;;;;;6.93;5.40;;;;;;;;;;3583338;39;20244;-78
2021/07/20 08:09:39;;;;;;;8.43;4.90;;;;;;;;;;3581787;40;20240;-78
2021/07/20 08:12:08;;;;;;;8.00;6.53;;;;;;;;;;3586720;40;20243;-77
2021/07/20 08:14:35;;;;;;;6.05;4.75;;;;;;;;;;3589689;40;20606;-82
2021/07/20 08:17:03;;;;;;;6.70;4.78;;;;;;;;;;3581608;40;20236;-78
2021/07/20 08:19:32;;;;;;;11.30;5.85;;;;;;;;;;3580984;40;20247;-77
2021/07/20 08:22:01;;;;;;;7.03;5.40;;;;;;;;;;3581666;40;20277;-78
2021/07/20 08:24:31;;;;;;;6.20;4.88;;;;;;;;;;3583994;40;20562;-78
2021/07/20 08:27:01;;;;;;;8.63;4.13;;;;;;;;;;3591649;39;20255;-78
2021/07/20 08:29:32;;;;;;;9.10;5.38;;;;;;;;;;3585833;39;20239;-78
2021/07/20 08:32:02;;;;;;;7.65;5.28;;;;;;;;;;3577113;40;20470;-83
2021/07/20 08:34:31;;;;;;;7.78;5.30;;;;;;;;;;3589721;39;20724;-78
2021/07/20 08:37:00;;;;;;;8.25;5.20;;;;;;;;;;3580597;40;20248;-80
2021/07/20 08:39:28;;;;;;;7.97;5.60;;;;;;;;;;3588636;40;20231;-78
2021/07/20 08:42:07;;;;;;;4.85;4.38;;;;;;;;;;3580129;40;20238;-78
2021/07/20 08:44:43;;;;;;;5.50;4.47;;;;;;;;;;3573995;40;20231;-80
2021/07/20 08:47:14;;;;;;;3.63;3.20;;;;;;;;;;3585729;40;20234;-78
2021/07/20 08:49:58;;;;;;;3.72;3.28;;;;;;;;;;3591243;39;20246;-77
2021/07/20 08:52:29;;;;;;;5.95;3.92;;;;;;;;;;3587702;39;20224;-85
2021/07/20 08:54:58;;;;;;;6.13;4.00;;;;;;;;;;3587005;40;20587;-78
2021/07/20 08:57:28;;;;;;;6.30;3.67;;;;;;;;;;3582405;40;20234;-79
2021/07/20 09:00:00;;;;;;;6.20;3.47;;;;;;;;;;3591826;39;20672;-79
2021/07/20 09:02:35;;;;;;;6.55;4.03;;;;;;;;;;3577372;40;20243;-79
2021/07/20 09:05:06;;;;;;;3.33;3.03;;;;;;;;;;3584319;40;20662;-78
2021/07/20 09:07:39;;;;;;;5.80;3.83;;;;;;;;;;3580374;40;20325;-79
2021/07/20 09:10:09;;;;;;;3.47;2.92;;;;;;;;;;3580625;40;20260;-78
2021/07/20 09:12:45;;;;;;;4.15;3.53;;;;;;;;;;3580583;40;20239;-79
2021/07/20 09:15:13;;;;;;;6.40;3.60;;;;;;;;;;3580022;40;20293;-78
2021/07/20 09:17:44;;;;;;;5.78;3.22;;;;;;;;;;3580209;40;20254;-81
2021/07/20 09:20:12;;;;;;;6.22;3.33;;;;;;;;;;3580631;40;20290;-79
2021/07/20 09:22:42;;;;;;;4.70;3.17;;;;;;;;;;3584753;39;20293;-78
2021/07/20 09:25:11;;;;;;;5.65;2.95;;;;;;;;;;3581808;40;20225;-78
2021/07/20 09:27:41;;;;;;;3.70;2.95;;;;;;;;;;3582014;40;20231;-78
2021/07/20 09:30:11;;;;;;;6.65;3.72;;;;;;;;;;3577239;40;20641;-78
2021/07/20 09:33:00;;;;;;;3.83;2.65;;;;;;;;;;3585237;40;20244;-78
2021/07/20 09:35:28;;;;;;;2.78;2.58;;;;;;;;;;3587354;39;20246;-86
2021/07/20 09:37:59;;;;;;;3.83;2.33;;;;;;;;;;3590236;39;20250;-79
2021/07/20 09:40:41;;;;;;;2.63;2.42;;;;;;;;;;3587834;40;20240;-79
2021/07/20 09:43:10;;;;;;;3.58;2.78;;;;;;;;;;3579056;40;20226;-79
2021/07/20 09:45:41;;;;;;;3.38;2.60;;;;;;;;;;3577269;40;20248;-79
2021/07/20 09:48:22;;;;;;;3.67;3.17;;;;;;;;;;3585642;40;20255;-83
2021/07/20 09:50:51;;;;;;;5.35;2.72;;;;;;;;;;3583349;40;20255;-78
2021/07/20 09:53:44;;;;;;;4.10;2.47;;;;;;;;;;3581349;40;20239;-78
2021/07/20 09:56:23;;;;;;;5.78;3.65;;;;;;;;;;3576518;40;20250;-79
2021/07/20 09:58:58;;;;;;;4.35;3.33;;;;;;;;;;3590613;40;20254;-78
2021/07/20 10:01:29;;;;;;;3.15;2.88;;;;;;;;;;3591388;39;20241;-78
2021/07/20 10:03:58;;;;;;;3.72;3.00;;;;;;;;;;3590716;39;20255;-81
2021/07/20 10:06:30;;;;;;;4.95;3.05;;;;;;;;;;3591405;40;20242;-78
2021/07/20 10:09:01;;;;;;;3.85;2.85;;;;;;;;;;3586563;40;20228;-79
2021/07/20 10:11:30;;;;;;;3.67;2.95;;;;;;;;;;3580652;40;20252;-78
2021/07/20 10:14:12;;;;;;;3.75;2.83;;;;;;;;;;3582410;40;20243;-82
2021/07/20 10:16:48;;;;;;;4.47;3.38;;;;;;;;;;3586172;39;20276;-79
2021/07/20 10:19:20;;;;;;;4.40;3.05;;;;;;;;;;3591577;39;20265;-79
2021/07/20 10:21:50;;;;;;;4.15;3.28;;;;;;;;;;3591087;39;20231;-79
2021/07/20 10:24:19;;;;;;;4.85;3.42;;;;;;;;;;3582491;40;20710;-82
2021/07/20 10:26:48;;;;;;;7.00;2.75;;;;;;;;;;3572645;40;20251;-79
2021/07/20 10:29:20;;;;;;;3.92;3.10;;;;;;;;;;3590304;39;20243;-81
2021/07/20 10:31:51;;;;;;;4.82;3.42;;;;;;;;;;3590297;39;20231;-79
2021/07/20 10:34:19;;;;;;;4.25;2.85;;;;;;;;;;3585046;39;20228;-79
2021/07/20 10:36:49;;;;;;;6.53;3.25;;;;;;;;;;3581204;40;20536;-79
2021/07/20 10:39:19;;;;;;;4.13;2.80;;;;;;;;;;3572674;40;20240;-78
2021/07/20 10:41:50;;;;;;;4.25;3.15;;;;;;;;;;3581361;40;20258;-79
2021/07/20 10:44:21;;;;;;;3.92;3.28;;;;;;;;;;3573580;40;20247;-79
2021/07/20 10:46:52;;;;;;;6.75;3.22;;;;;;;;;;3578295;40;20263;-80
2021/07/20 10:49:24;;;;;;;4.70;3.22;;;;;;;;;;3581516;40;20247;-79
2021/07/20 10:51:51;;;;;;;5.13;2.92;;;;;;;;;;3575720;40;20224;-80
2021/07/20 10:54:24;;;;;;;3.20;2.83;;;;;;;;;;3581831;40;20235;-79
2021/07/20 10:56:54;;;;;;;2.75;2.50;;;;;;;;;;3587145;39;20737;-79
2021/07/20 10:59:29;;;;;;;5.50;3.53;;;;;;;;;;3584102;39;20798;-82
2021/07/20 11:02:06;;;;;;;4.80;3.05;;;;;;;;;;3575376;39;20244;-80
2021/07/20 11:04:39;;;;;;;3.17;2.88;;;;;;;;;;3588053;39;20667;-81
2021/07/20 11:07:07;;;;;;;3.10;2.80;;;;;;;;;;3591728;39;20696;-80
2021/07/20 11:09:34;;;;;;;4.50;2.92;;;;;;;;;;3584347;39;20286;-82
2021/07/20 11:12:04;;;;;;;4.20;3.40;;;;;;;;;;3586478;39;20777;-79
2021/07/20 11:14:33;;;;;;;6.30;3.17;;;;;;;;;;3583302;39;20228;-80
2021/07/20 11:17:01;;;;;;;4.85;3.53;;;;;;;;;;3583187;39;20905;-80
2021/07/20 11:19:30;;;;;;;3.30;3.00;;;;;;;;;;3591404;39;20732;-84
2021/07/20 11:21:58;;;;;;;6.03;3.28;;;;;;;;;;3591161;39;20297;-80
2021/07/20 11:24:26;;;;;;;5.53;3.28;;;;;;;;;;3591381;39;20234;-83
2021/07/20 11:26:55;;;;;;;5.03;2.67;;;;;;;;;;3591487;39;20222;-80
2021/07/20 11:29:23;;;;;;;3.92;3.10;;;;;;;;;;3590580;39;20246;-82
2021/07/20 11:31:53;;;;;;;4.22;3.72;;;;;;;;;;3585930;39;20250;-81
2021/07/20 11:34:24;;;;;;;3.95;2.70;;;;;;;;;;3575407;39;20246;-81
2021/07/20 11:36:52;;;;;;;5.50;2.83;;;;;;;;;;3590906;39;20239;-81
2021/07/20 11:39:22;;;;;;;3.35;2.45;;;;;;;;;;3591155;39;20243;-81
2021/07/20 11:41:54;;;;;;;3.53;2.70;;;;;;;;;;3591295;39;20235;-80
2021/07/20 11:44:27;;;;;;;4.55;3.20;;;;;;;;;;3591282;39;20247;-79
2021/07/20 11:46:57;;;;;;;4.82;3.05;;;;;;;;;;3591629;39;20238;-81
2021/07/20 11:49:37;;;;;;;4.70;2.95;;;;;;;;;;3591284;39;20242;-83
2021/07/20 11:52:06;;;;;;;3.10;2.75;;;;;;;;;;3587722;39;20262;-82
2021/07/20 11:54:40;;;;;;;6.95;3.65;;;;;;;;;;3587050;39;20239;-81
2021/07/20 11:57:27;;;;;;;3.40;3.10;;;;;;;;;;3586175;39;20215;-81
2021/07/20 12:00:06;;;;;;;7.32;3.10;;;;;;;;;;3577518;40;20904;-86
2021/07/20 12:03:10;;;;;;;4.38;3.03;;;;;;;;;;3585205;39;20820;-81
2021/07/20 12:05:55;;;;;;;4.85;3.55;;;;;;;;;;3581672;40;20269;-83
2021/07/20 12:08:29;;;;;;;6.13;3.33;;;;;;;;;;3582333;39;20773;-82
2021/07/20 12:10:58;;;;;;;4.97;3.10;;;;;;;;;;3592750;39;20246;-81
2021/07/20 12:13:27;;;;;;;3.15;2.88;;;;;;;;;;3583563;39;21121;-81
2021/07/20 12:15:57;;;;;;;3.28;2.97;;;;;;;;;;3586732;39;20221;-82
2021/07/20 12:18:24;;;;;;;6.05;3.22;;;;;;;;;;3583174;39;20235;-83
2021/07/20 12:20:52;;;;;;;4.57;3.53;;;;;;;;;;3589917;39;20243;-83
2021/07/20 12:23:19;;;;;;;4.35;3.03;;;;;;;;;;3588804;39;20226;-82
2021/07/20 12:25:49;;;;;;;4.22;2.78;;;;;;;;;;3574632;39;20228;-80
2021/07/20 12:28:16;;;;;;;3.78;3.38;;;;;;;;;;3585382;39;20251;-82
2021/07/20 12:30:44;;;;;;;3.15;2.85;;;;;;;;;;3592683;39;20228;-81
2021/07/20 12:33:15;;;;;;;3.25;3.03;;;;;;;;;;3583876;39;20241;-85
2021/07/20 12:35:49;;;;;;;6.03;3.15;;;;;;;;;;3577489;40;20240;-83
2021/07/20 12:38:23;;;;;;;3.97;3.20;;;;;;;;;;3583587;39;20247;-84
2021/07/20 12:40:52;;;;;;;3.58;3.28;;;;;;;;;;3580552;40;20212;-85
2021/07/20 12:43:19;;;;;;;4.22;3.10;;;;;;;;;;3579092;39;20231;-83
2021/07/20 12:49:29;;;;;;;3.30;2.95;;;;;;;;;;3585864;39;20238;-82
2021/07/20 12:51:58;;;;;;;3.65;3.28;;;;;;;;;;3585237;39;20236;-82
2021/07/20 12:54:34;;;;;;;6.35;3.65;;;;;;;;;;3573880;40;20637;-84
2021/07/20 12:57:04;;;;;;;3.92;2.83;;;;;;;;;;3586507;39;20237;-82
2021/07/20 12:59:31;;;;;;;5.95;3.40;;;;;;;;;;3592790;39;20792;-83
2021/07/20 13:01:59;;;;;;;4.13;3.35;;;;;;;;;;3584083;39;20243;-81
2021/07/20 13:04:27;;;;;;;3.95;3.05;;;;;;;;;;3591007;39;20286;-82
2021/07/20 13:06:55;;;;;;;3.85;3.15;;;;;;;;;;3581764;39;20211;-85
2021/07/20 13:09:23;;;;;;;5.47;3.38;;;;;;;;;;3571999;39;20770;-83
2021/07/20 13:11:52;;;;;;;4.43;3.20;;;;;;;;;;3585825;39;20224;-84
2021/07/20 13:14:21;;;;;;;4.22;3.80;;;;;;;;;;3569034;40;20307;-82
2021/07/20 13:16:48;;;;;;;3.65;2.72;;;;;;;;;;3588389;39;20235;-83
2021/07/20 13:19:18;;;;;;;3.85;3.45;;;;;;;;;;3582868;40;20228;-82
2021/07/20 13:21:46;;;;;;;3.45;3.00;;;;;;;;;;3587580;39;20263;-83
2021/07/20 13:24:13;;;;;;;3.83;3.28;;;;;;;;;;3587884;39;20212;-83
2021/07/20 13:26:41;;;;;;;4.82;3.15;;;;;;;;;;3573836;40;20255;-84
2021/07/20 13:29:10;;;;;;;2.83;2.53;;;;;;;;;;3573764;40;20238;-86
2021/07/20 13:31:39;;;;;;;4.50;3.47;;;;;;;;;;3582243;40;20228;-83
2021/07/20 13:34:07;;;;;;;7.30;3.17;;;;;;;;;;3573542;40;20239;-79
2021/07/20 13:36:36;;;;;;;6.50;3.42;;;;;;;;;;3585694;39;20251;-82
2021/07/20 13:39:06;;;;;;;3.80;3.42;;;;;;;;;;3592225;39;20831;-83
2021/07/20 13:41:34;;;;;;;6.03;3.03;;;;;;;;;;3576093;40;20290;-80
2021/07/20 13:44:02;;;;;;;3.97;3.38;;;;;;;;;;3582221;40;20235;-82
2021/07/20 13:46:30;;;;;;;3.60;2.95;;;;;;;;;;3575914;39;20243;-81
2021/07/20 13:48:59;;;;;;;8.05;3.58;;;;;;;;;;3586718;39;20860;-82
2021/07/20 13:51:28;;;;;;;10.05;4.10;;;;;;;;;;3587385;39;20293;-81
2021/07/20 13:53:59;;;;;;;6.35;3.55;;;;;;;;;;3591925;39;20235;-84
2021/07/20 13:56:30;;;;;;;4.07;2.88;;;;;;;;;;3585585;39;20227;-80
2021/07/20 13:58:59;;;;;;;6.78;3.25;;;;;;;;;;3566484;39;20240;-82
2021/07/20 14:01:26;;;;;;;4.80;3.40;;;;;;;;;;3585362;39;20982;-80
2021/07/20 14:03:54;;;;;;;3.97;2.67;;;;;;;;;;3587214;39;20765;-81
2021/07/20 14:06:23;;;;;;;4.38;3.00;;;;;;;;;;3567232;39;20232;-83
2021/07/20 14:08:50;;;;;;;4.75;2.30;;;;;;;;;;3583137;39;20243;-82
2021/07/20 14:11:18;;;;;;;5.32;2.42;;;;;;;;;;3589205;39;20231;-82
2021/07/20 14:13:45;;;;;;;5.05;3.00;;;;;;;;;;3592049;39;20243;-81
2021/07/20 14:16:14;;;;;;;4.45;3.72;;;;;;;;;;3592082;39;20232;-82
2021/07/20 14:18:42;;;;;;;5.03;2.90;;;;;;;;;;3586623;39;20232;-84
2021/07/20 14:21:09;;;;;;;3.58;2.83;;;;;;;;;;3588853;39;20227;-84
2021/07/20 14:23:40;;;;;;;3.42;2.67;;;;;;;;;;3591757;39;20214;-84
2021/07/20 14:26:12;;;;;;;5.03;3.05;;;;;;;;;;3582048;40;20239;-80
2021/07/20 14:28:40;;;;;;;4.70;3.00;;;;;;;;;;3581845;40;20227;-81
2021/07/20 14:31:08;;;;;;;2.95;2.72;;;;;;;;;;3583882;39;20231;-85
2021/07/20 14:33:35;;;;;;;6.38;3.17;;;;;;;;;;3590860;39;20231;-80
2021/07/20 14:36:03;;;;;;;3.15;2.90;;;;;;;;;;3584942;39;20294;-80
2021/07/20 14:38:38;;;;;;;5.00;4.50;;;;;;;;;;3576121;40;20297;-84
2021/07/20 14:41:08;;;;;;;3.15;2.85;;;;;;;;;;3585777;39;20223;-79
2021/07/20 14:43:36;;;;;;;6.72;2.97;;;;;;;;;;3587239;39;20224;-81
2021/07/20 14:46:11;;;;;;;5.28;3.15;;;;;;;;;;3583438;39;20246;-83
2021/07/20 14:48:43;;;;;;;2.85;2.28;;;;;;;;;;3581691;39;20215;-85
2021/07/20 14:51:10;;;;;;;5.22;3.05;;;;;;;;;;3580290;39;20255;-81
2021/07/20 14:53:47;;;;;;;4.45;3.20;;;;;;;;;;3587246;39;20248;-80
2021/07/20 14:56:18;;;;;;;3.45;3.13;;;;;;;;;;3588216;39;20236;-80
2021/07/20 14:58:47;;;;;;;3.65;3.33;;;;;;;;;;3579601;40;20236;-84
2021/07/20 15:01:18;;;;;;;3.85;3.35;;;;;;;;;;3590826;39;20227;-80
2021/07/20 15:03:47;;;;;;;3.60;3.30;;;;;;;;;;3582980;39;20215;-80
2021/07/20 15:06:16;;;;;;;4.40;3.90;;;;;;;;;;3591716;39;20234;-85
2021/07/20 15:08:45;;;;;;;13.75;3.35;;;;;;;;;;3587190;39;20258;-81
2021/07/20 15:11:36;;;;;;;4.97;3.05;;;;;;;;;;3577475;40;20244;-82